createdAt,value
2023-02-28T06:07:13.218Z,3.13
2023-02-28T06:25:02.521Z,4.05
2023-02-28T07:00:43.984Z,5.88
2023-02-28T07:03:18.815Z,6.45
2023-02-28T07:05:55.405Z,6.90
2023-02-28T07:08:25.704Z,6.22
2023-02-28T07:11:04.396Z,6.68
2023-02-28T07:13:34.889Z,7.35
2023-02-28T07:16:20.426Z,6.60
2023-02-28T07:18:53.628Z,6.50
2023-02-28T07:21:31.748Z,7.50
2023-02-28T07:24:02.068Z,7.13
2023-02-28T07:26:41.485Z,7.97
2023-02-28T07:29:12.069Z,8.27
2023-02-28T07:31:48.597Z,8.15
2023-02-28T07:34:21.447Z,8.75
2023-02-28T07:37:00.470Z,8.85
2023-02-28T07:39:30.492Z,8.95
2023-02-28T07:42:07.476Z,8.35
2023-02-28T07:44:47.469Z,8.65
2023-02-28T07:47:17.578Z,8.35
2023-02-28T07:49:57.467Z,9.23
2023-02-28T07:52:35.472Z,9.35
2023-02-28T07:55:05.772Z,9.10
2023-02-28T07:57:42.561Z,8.60
2023-02-28T08:00:18.056Z,8.43
2023-02-28T08:02:54.457Z,8.60
2023-02-28T08:05:27.260Z,8.65
2023-02-28T08:08:03.524Z,9.07
2023-02-28T08:10:33.546Z,8.70
2023-02-28T08:13:13.528Z,8.85
2023-02-28T08:15:46.399Z,9.02
2023-02-28T08:18:22.483Z,8.50
2023-02-28T08:20:55.361Z,8.32
2023-02-28T08:23:35.578Z,9.45
2023-02-28T08:26:12.545Z,9.18
2023-02-28T08:28:42.569Z,9.15
2023-02-28T08:31:21.544Z,9.85
2023-02-28T08:33:54.110Z,9.80
2023-02-28T08:36:36.512Z,10.07
2023-02-28T08:39:13.904Z,10.07
2023-02-28T08:41:47.968Z,9.70
2023-02-28T08:44:25.509Z,10.07
2023-02-28T08:46:55.701Z,9.88
2023-02-28T08:49:34.524Z,9.55
2023-02-28T08:52:07.415Z,10.07
2023-02-28T08:54:46.647Z,9.70
2023-02-28T08:57:19.509Z,7.53
2023-02-28T08:59:56.787Z,7.40
2023-02-28T09:27:05.419Z,3.80
2023-02-28T09:29:43.628Z,3.35
2023-02-28T09:32:26.790Z,3.70
